sensor_id;sensor_type;location;lat;lon;timestamp;pressure;altitude;pressure_sealevel;temperature;humidity
69187;BME280;56301;56.864;60.554;2023-08-08T00:00:53;97782.16;;;24.82;57.52
69187;BME280;56301;56.864;60.554;2023-08-08T00:03:15;97789.22;;;24.83;57.53
69187;BME280;56301;56.864;60.554;2023-08-08T00:05:38;97793.81;;;24.83;57.22
69187;BME280;56301;56.864;60.554;2023-08-08T00:08:00;97792.97;;;24.82;57.79
69187;BME280;56301;56.864;60.554;2023-08-08T00:10:22;97794.84;;;24.82;57.51
69187;BME280;56301;56.864;60.554;2023-08-08T00:12:45;97798.38;;;24.82;57.29
69187;BME280;56301;56.864;60.554;2023-08-08T00:15:07;97800.25;;;24.82;57.03
69187;BME280;56301;56.864;60.554;2023-08-08T00:17:30;97797.56;;;24.82;57.29
69187;BME280;56301;56.864;60.554;2023-08-08T00:19:52;97798.59;;;24.81;57.43
69187;BME280;56301;56.864;60.554;2023-08-08T00:22:15;97795.91;;;24.81;56.89
69187;BME280;56301;56.864;60.554;2023-08-08T00:24:38;97796.72;;;24.81;57.18
69187;BME280;56301;56.864;60.554;2023-08-08T00:27:00;97794.22;;;24.80;57.38
69187;BME280;56301;56.864;60.554;2023-08-08T00:29:23;97796.72;;;24.81;57.55
69187;BME280;56301;56.864;60.554;2023-08-08T00:31:45;97793.19;;;24.81;57.06
69187;BME280;56301;56.864;60.554;2023-08-08T00:34:07;97800.47;;;24.80;57.51
69187;BME280;56301;56.864;60.554;2023-08-08T00:36:30;97795.91;;;24.81;57.03
69187;BME280;56301;56.864;60.554;2023-08-08T00:38:52;97796.91;;;24.80;56.80
69187;BME280;56301;56.864;60.554;2023-08-08T00:41:15;97797.97;;;24.79;56.95
69187;BME280;56301;56.864;60.554;2023-08-08T00:43:38;97800.47;;;24.80;57.18
69187;BME280;56301;56.864;60.554;2023-08-08T00:46:01;97800.47;;;24.80;57.24
69187;BME280;56301;56.864;60.554;2023-08-08T00:48:23;97795.06;;;24.80;57.09
69187;BME280;56301;56.864;60.554;2023-08-08T00:50:46;97799.63;;;24.80;57.25
69187;BME280;56301;56.864;60.554;2023-08-08T00:53:10;97797.78;;;24.80;57.06
69187;BME280;56301;56.864;60.554;2023-08-08T00:55:32;97804.22;;;24.79;56.83
69187;BME280;56301;56.864;60.554;2023-08-08T00:57:55;97805.03;;;24.80;56.45
69187;BME280;56301;56.864;60.554;2023-08-08T01:00:18;97804.22;;;24.79;57.09
69187;BME280;56301;56.864;60.554;2023-08-08T01:02:41;97805.03;;;24.80;56.58
69187;BME280;56301;56.864;60.554;2023-08-08T01:05:04;97802.34;;;24.80;57.01
69187;BME280;56301;56.864;60.554;2023-08-08T01:07:30;97815.84;;;24.80;57.23
69187;BME280;56301;56.864;60.554;2023-08-08T01:09:55;97820.44;;;24.79;56.54
69187;BME280;56301;56.864;60.554;2023-08-08T01:12:19;97815.03;;;24.79;56.59
69187;BME280;56301;56.864;60.554;2023-08-08T01:14:42;97812.31;;;24.79;56.69
69187;BME280;56301;56.864;60.554;2023-08-08T01:17:05;97817.75;;;24.79;57.40
69187;BME280;56301;56.864;60.554;2023-08-08T01:19:29;97815.03;;;24.79;56.70
69187;BME280;56301;56.864;60.554;2023-08-08T01:21:52;97813.16;;;24.80;56.95
69187;BME280;56301;56.864;60.554;2023-08-08T01:26:37;97805.03;;;24.80;56.83
69187;BME280;56301;56.864;60.554;2023-08-08T01:29:00;97813.16;;;24.80;56.60
69187;BME280;56301;56.864;60.554;2023-08-08T01:31:24;97813.16;;;24.80;57.23
69187;BME280;56301;56.864;60.554;2023-08-08T01:33:47;97814.19;;;24.79;56.80
69187;BME280;56301;56.864;60.554;2023-08-08T01:36:14;97803.38;;;24.79;57.25
69187;BME280;56301;56.864;60.554;2023-08-08T01:38:40;97806.09;;;24.79;57.04
69187;BME280;56301;56.864;60.554;2023-08-08T01:41:04;97811.50;;;24.79;56.51
69187;BME280;56301;56.864;60.554;2023-08-08T01:43:26;97813.38;;;24.78;56.72
69187;BME280;56301;56.864;60.554;2023-08-08T01:45:50;97806.09;;;24.79;56.15
69187;BME280;56301;56.864;60.554;2023-08-08T01:48:13;97804.22;;;24.79;57.24
69187;BME280;56301;56.864;60.554;2023-08-08T01:50:36;97800.69;;;24.79;56.43
69187;BME280;56301;56.864;60.554;2023-08-08T01:52:58;97804.22;;;24.79;56.51
69187;BME280;56301;56.864;60.554;2023-08-08T01:55:21;97802.34;;;24.80;56.23
69187;BME280;56301;56.864;60.554;2023-08-08T01:57:43;97799.84;;;24.78;56.58
69187;BME280;56301;56.864;60.554;2023-08-08T02:00:06;97801.50;;;24.79;56.69
69187;BME280;56301;56.864;60.554;2023-08-08T02:02:37;97801.72;;;24.78;57.11
69187;BME280;56301;56.864;60.554;2023-08-08T02:05:00;97796.31;;;24.78;56.70
69187;BME280;56301;56.864;60.554;2023-08-08T02:07:23;97808.78;;;24.79;56.14
69187;BME280;56301;56.864;60.554;2023-08-08T02:09:46;97797.16;;;24.78;56.31
69187;BME280;56301;56.864;60.554;2023-08-08T02:12:08;97805.25;;;24.78;56.54
69187;BME280;56301;56.864;60.554;2023-08-08T02:14:31;97794.44;;;24.78;56.58
69187;BME280;56301;56.864;60.554;2023-08-08T02:16:53;97799.63;;;24.80;55.85
69187;BME280;56301;56.864;60.554;2023-08-08T02:19:16;97802.56;;;24.78;55.96
69187;BME280;56301;56.864;60.554;2023-08-08T02:21:38;97805.25;;;24.78;55.85
69187;BME280;56301;56.864;60.554;2023-08-08T02:24:01;97802.56;;;24.78;56.06
69187;BME280;56301;56.864;60.554;2023-08-08T02:26:24;97796.31;;;24.78;56.03
69187;BME280;56301;56.864;60.554;2023-08-08T02:28:47;97803.59;;;24.77;56.04
69187;BME280;56301;56.864;60.554;2023-08-08T02:31:09;97806.31;;;24.77;55.65
69187;BME280;56301;56.864;60.554;2023-08-08T02:33:31;97812.53;;;24.78;56.51
69187;BME280;56301;56.864;60.554;2023-08-08T02:35:54;97809.84;;;24.78;56.42
69187;BME280;56301;56.864;60.554;2023-08-08T02:38:17;97807.13;;;24.78;56.39
69187;BME280;56301;56.864;60.554;2023-08-08T02:40:39;97807.97;;;24.78;56.54
69187;BME280;56301;56.864;60.554;2023-08-08T02:43:02;97802.56;;;24.78;56.39
69187;BME280;56301;56.864;60.554;2023-08-08T02:45:24;97797.16;;;24.78;55.88
69187;BME280;56301;56.864;60.554;2023-08-08T02:47:47;97807.13;;;24.78;56.29
69187;BME280;56301;56.864;60.554;2023-08-08T02:50:09;97801.72;;;24.78;56.38
69187;BME280;56301;56.864;60.554;2023-08-08T02:52:32;97807.97;;;24.78;56.21
69187;BME280;56301;56.864;60.554;2023-08-08T02:54:54;97807.97;;;24.78;56.38
69187;BME280;56301;56.864;60.554;2023-08-08T02:57:17;97812.31;;;24.79;55.75
69187;BME280;56301;56.864;60.554;2023-08-08T02:59:40;97816.09;;;24.78;55.84
69187;BME280;56301;56.864;60.554;2023-08-08T03:02:03;97807.97;;;24.78;55.50
69187;BME280;56301;56.864;60.554;2023-08-08T03:04:28;97810.66;;;24.78;56.29
69187;BME280;56301;56.864;60.554;2023-08-08T03:06:50;97809.84;;;24.78;55.99
69187;BME280;56301;56.864;60.554;2023-08-08T03:09:13;97802.56;;;24.78;55.93
69187;BME280;56301;56.864;60.554;2023-08-08T03:11:36;97804.44;;;24.78;55.70
69187;BME280;56301;56.864;60.554;2023-08-08T03:13:58;97801.72;;;24.78;55.39
69187;BME280;56301;56.864;60.554;2023-08-08T03:16:21;97798.19;;;24.77;55.69
69187;BME280;56301;56.864;60.554;2023-08-08T03:18:44;97801.72;;;24.78;55.67
69187;BME280;56301;56.864;60.554;2023-08-08T03:21:06;97802.78;;;24.77;55.68
69187;BME280;56301;56.864;60.554;2023-08-08T03:23:30;97807.13;;;24.78;55.86
69187;BME280;56301;56.864;60.554;2023-08-08T03:25:53;97807.13;;;24.78;55.75
69187;BME280;56301;56.864;60.554;2023-08-08T03:28:15;97810.88;;;24.77;55.74
69187;BME280;56301;56.864;60.554;2023-08-08T03:30:38;97812.53;;;24.78;56.16
69187;BME280;56301;56.864;60.554;2023-08-08T03:33:02;97811.72;;;24.77;55.64
69187;BME280;56301;56.864;60.554;2023-08-08T03:35:25;97803.59;;;24.77;56.19
69187;BME280;56301;56.864;60.554;2023-08-08T03:37:48;97819.00;;;24.77;56.20
69187;BME280;56301;56.864;60.554;2023-08-08T03:40:10;97817.97;;;24.78;55.76
69187;BME280;56301;56.864;60.554;2023-08-08T03:42:33;97820.66;;;24.78;55.64
69187;BME280;56301;56.864;60.554;2023-08-08T03:44:55;97816.91;;;24.79;55.60
69187;BME280;56301;56.864;60.554;2023-08-08T03:47:18;97808.78;;;24.79;55.98
69187;BME280;56301;56.864;60.554;2023-08-08T03:49:41;97814.19;;;24.79;55.49
69187;BME280;56301;56.864;60.554;2023-08-08T03:52:03;97810.44;;;24.80;55.43
69187;BME280;56301;56.864;60.554;2023-08-08T03:54:26;97815.03;;;24.79;56.28
69187;BME280;56301;56.864;60.554;2023-08-08T03:56:48;97814.19;;;24.79;55.54
69187;BME280;56301;56.864;60.554;2023-08-08T03:59:11;97821.28;;;24.80;55.47
69187;BME280;56301;56.864;60.554;2023-08-08T04:01:33;97817.75;;;24.79;55.69
69187;BME280;56301;56.864;60.554;2023-08-08T04:03:57;97815.84;;;24.80;55.61
69187;BME280;56301;56.864;60.554;2023-08-08T04:06:19;97821.28;;;24.80;55.18
69187;BME280;56301;56.864;60.554;2023-08-08T04:08:42;97819.63;;;24.79;55.33
69187;BME280;56301;56.864;60.554;2023-08-08T04:11:04;97821.28;;;24.80;55.68
69187;BME280;56301;56.864;60.554;2023-08-08T04:13:27;97822.97;;;24.81;55.38
69187;BME280;56301;56.864;60.554;2023-08-08T04:15:50;97820.03;;;24.82;55.48
69187;BME280;56301;56.864;60.554;2023-08-08T04:18:12;97827.31;;;24.82;55.21
69187;BME280;56301;56.864;60.554;2023-08-08T04:20:34;97825.25;;;24.84;55.26
69187;BME280;56301;56.864;60.554;2023-08-08T04:22:57;97820.44;;;24.86;55.70
69187;BME280;56301;56.864;60.554;2023-08-08T04:25:19;97826.50;;;24.88;55.08
69187;BME280;56301;56.864;60.554;2023-08-08T04:27:42;97823.34;;;24.91;55.39
69187;BME280;56301;56.864;60.554;2023-08-08T04:30:04;97825.03;;;24.92;54.73
69187;BME280;56301;56.864;60.554;2023-08-08T04:32:27;97834.19;;;24.91;54.95
69187;BME280;56301;56.864;60.554;2023-08-08T04:34:50;97831.69;;;24.89;55.79
69187;BME280;56301;56.864;60.554;2023-08-08T04:37:12;97826.28;;;24.89;54.94
69187;BME280;56301;56.864;60.554;2023-08-08T04:39:34;97837.09;;;24.89;54.84
69187;BME280;56301;56.864;60.554;2023-08-08T04:41:57;97837.53;;;24.93;55.44
69187;BME280;56301;56.864;60.554;2023-08-08T04:44:19;97837.53;;;24.93;55.17
69187;BME280;56301;56.864;60.554;2023-08-08T04:46:42;97841.88;;;24.94;55.10
69187;BME280;56301;56.864;60.554;2023-08-08T04:49:04;97849.00;;;24.95;55.19
69187;BME280;56301;56.864;60.554;2023-08-08T04:51:27;97845.22;;;24.96;55.45
69187;BME280;56301;56.864;60.554;2023-08-08T04:53:49;97854.41;;;24.95;55.16
69187;BME280;56301;56.864;60.554;2023-08-08T04:56:11;97850.66;;;24.96;55.01
69187;BME280;56301;56.864;60.554;2023-08-08T04:58:34;97844.59;;;24.94;54.88
69187;BME280;56301;56.864;60.554;2023-08-08T05:00:56;97849.41;;;24.92;55.08
69187;BME280;56301;56.864;60.554;2023-08-08T05:03:19;97850.84;;;24.94;55.01
69187;BME280;56301;56.864;60.554;2023-08-08T05:05:41;97843.75;;;24.93;55.19
69187;BME280;56301;56.864;60.554;2023-08-08T05:08:04;97851.06;;;24.93;55.24
69187;BME280;56301;56.864;60.554;2023-08-08T05:10:26;97845.66;;;24.93;55.06
69187;BME280;56301;56.864;60.554;2023-08-08T05:12:48;97846.69;;;24.92;55.38
69187;BME280;56301;56.864;60.554;2023-08-08T05:15:11;97847.72;;;24.91;55.29
69187;BME280;56301;56.864;60.554;2023-08-08T05:17:33;97843.34;;;24.90;55.97
69187;BME280;56301;56.864;60.554;2023-08-08T05:19:56;97841.69;;;24.89;54.99
69187;BME280;56301;56.864;60.554;2023-08-08T05:22:18;97845.22;;;24.89;55.28
69187;BME280;56301;56.864;60.554;2023-08-08T05:24:41;97852.50;;;24.89;55.23
69187;BME280;56301;56.864;60.554;2023-08-08T05:27:03;97840.84;;;24.88;55.18
69187;BME280;56301;56.864;60.554;2023-08-08T05:29:26;97848.75;;;24.90;55.18
69187;BME280;56301;56.864;60.554;2023-08-08T05:31:48;97837.94;;;24.90;55.16
69187;BME280;56301;56.864;60.554;2023-08-08T05:34:11;97845.88;;;24.91;55.40
69187;BME280;56301;56.864;60.554;2023-08-08T05:36:33;97845.00;;;24.91;55.12
69187;BME280;56301;56.864;60.554;2023-08-08T05:38:56;97839.59;;;24.91;55.77
69187;BME280;56301;56.864;60.554;2023-08-08T05:41:18;97843.34;;;24.90;55.28
69187;BME280;56301;56.864;60.554;2023-08-08T05:43:40;97850.41;;;24.91;55.22
69187;BME280;56301;56.864;60.554;2023-08-08T05:46:03;97839.59;;;24.91;55.61
69187;BME280;56301;56.864;60.554;2023-08-08T05:48:25;97847.72;;;24.91;55.38
69187;BME280;56301;56.864;60.554;2023-08-08T05:50:48;97854.16;;;24.90;55.74
69187;BME280;56301;56.864;60.554;2023-08-08T05:53:10;97847.94;;;24.89;55.41
69187;BME280;56301;56.864;60.554;2023-08-08T05:55:33;97848.75;;;24.90;55.75
69187;BME280;56301;56.864;60.554;2023-08-08T05:57:55;97840.63;;;24.90;55.36
69187;BME280;56301;56.864;60.554;2023-08-08T06:00:18;97840.44;;;24.91;55.25
69187;BME280;56301;56.864;60.554;2023-08-08T06:02:40;97842.09;;;24.92;55.31
69187;BME280;56301;56.864;60.554;2023-08-08T06:05:03;97845.66;;;24.93;55.32
69187;BME280;56301;56.864;60.554;2023-08-08T06:07:25;97840.22;;;24.93;55.76
69187;BME280;56301;56.864;60.554;2023-08-08T06:09:48;97842.94;;;24.93;55.57
69187;BME280;56301;56.864;60.554;2023-08-08T06:12:10;97842.94;;;24.93;55.92
69187;BME280;56301;56.864;60.554;2023-08-08T06:14:32;97838.34;;;24.93;55.24
69187;BME280;56301;56.864;60.554;2023-08-08T06:16:55;97834.59;;;24.94;55.61
69187;BME280;56301;56.864;60.554;2023-08-08T06:19:17;97835.47;;;24.95;55.21
69187;BME280;56301;56.864;60.554;2023-08-08T06:21:40;97829.00;;;24.96;54.98
69187;BME280;56301;56.864;60.554;2023-08-08T06:24:02;97826.28;;;24.96;55.14
69187;BME280;56301;56.864;60.554;2023-08-08T06:26:25;97825.47;;;24.95;55.20
69187;BME280;56301;56.864;60.554;2023-08-08T06:28:47;97835.47;;;24.95;55.47
69187;BME280;56301;56.864;60.554;2023-08-08T06:31:10;97833.59;;;24.95;55.16
69187;BME280;56301;56.864;60.554;2023-08-08T06:33:32;97829.81;;;24.96;55.75
69187;BME280;56301;56.864;60.554;2023-08-08T06:35:55;97829.81;;;24.96;55.24
69187;BME280;56301;56.864;60.554;2023-08-08T06:38:17;97834.41;;;24.96;55.33
69187;BME280;56301;56.864;60.554;2023-08-08T06:40:40;97835.88;;;24.98;54.78
69187;BME280;56301;56.864;60.554;2023-08-08T06:43:02;97836.69;;;24.99;55.16
69187;BME280;56301;56.864;60.554;2023-08-08T06:45:25;97845.84;;;24.98;55.89
69187;BME280;56301;56.864;60.554;2023-08-08T06:47:47;97840.44;;;24.98;55.33
69187;BME280;56301;56.864;60.554;2023-08-08T06:50:10;97838.34;;;25.00;55.28
69187;BME280;56301;56.864;60.554;2023-08-08T06:52:32;97836.69;;;24.99;55.55
69187;BME280;56301;56.864;60.554;2023-08-08T06:54:55;97839.81;;;25.03;55.18
69187;BME280;56301;56.864;60.554;2023-08-08T06:57:17;97840.00;;;25.01;55.17
69187;BME280;56301;56.864;60.554;2023-08-08T06:59:39;97846.47;;;25.00;55.39
69187;BME280;56301;56.864;60.554;2023-08-08T07:02:02;97844.41;;;25.02;55.30
69187;BME280;56301;56.864;60.554;2023-08-08T07:04:24;97842.31;;;25.04;55.71
69187;BME280;56301;56.864;60.554;2023-08-08T07:06:47;97843.97;;;25.05;55.64
69187;BME280;56301;56.864;60.554;2023-08-08T07:09:09;97853.78;;;25.06;55.10
69187;BME280;56301;56.864;60.554;2023-08-08T07:11:32;97853.13;;;25.04;55.20
69187;BME280;56301;56.864;60.554;2023-08-08T07:13:54;97844.19;;;25.04;55.51
69187;BME280;56301;56.864;60.554;2023-08-08T07:16:17;97852.09;;;25.05;54.89
69187;BME280;56301;56.864;60.554;2023-08-08T07:18:39;97851.25;;;25.05;54.92
69187;BME280;56301;56.864;60.554;2023-08-08T07:21:01;97855.84;;;25.04;54.86
69187;BME280;56301;56.864;60.554;2023-08-08T07:23:24;97860.84;;;25.07;55.13
69187;BME280;56301;56.864;60.554;2023-08-08T07:25:47;97858.13;;;25.07;55.31
69187;BME280;56301;56.864;60.554;2023-08-08T07:28:09;97851.69;;;25.08;54.94
69187;BME280;56301;56.864;60.554;2023-08-08T07:30:31;97860.03;;;25.07;55.15
69187;BME280;56301;56.864;60.554;2023-08-08T07:32:54;97860.84;;;25.07;55.23
69187;BME280;56301;56.864;60.554;2023-08-08T07:35:16;97865.03;;;25.10;55.17
69187;BME280;56301;56.864;60.554;2023-08-08T07:37:39;97871.28;;;25.10;55.06
69187;BME280;56301;56.864;60.554;2023-08-08T07:40:01;97860.25;;;25.12;55.03
69187;BME280;56301;56.864;60.554;2023-08-08T07:42:24;97864.66;;;25.13;54.95
69187;BME280;56301;56.864;60.554;2023-08-08T07:44:46;97865.88;;;25.17;54.88
69187;BME280;56301;56.864;60.554;2023-08-08T07:47:09;97865.88;;;25.24;55.24
69187;BME280;56301;56.864;60.554;2023-08-08T07:49:31;97873.78;;;25.25;55.14
69187;BME280;56301;56.864;60.554;2023-08-08T07:51:54;97875.03;;;25.29;54.49
69187;BME280;56301;56.864;60.554;2023-08-08T07:54:16;97875.63;;;24.85;54.02
69187;BME280;56301;56.864;60.554;2023-08-08T07:56:38;97883.78;;;24.37;53.88
69187;BME280;56301;56.864;60.554;2023-08-08T07:59:01;97887.69;;;24.27;53.72
69187;BME280;56301;56.864;60.554;2023-08-08T08:01:23;97889.44;;;24.42;55.36
69187;BME280;56301;56.864;60.554;2023-08-08T08:03:46;97882.59;;;24.46;55.80
69187;BME280;56301;56.864;60.554;2023-08-08T08:06:09;97897.94;;;24.39;55.17
69187;BME280;56301;56.864;60.554;2023-08-08T08:08:31;97893.00;;;24.01;53.33
69187;BME280;56301;56.864;60.554;2023-08-08T08:10:54;97887.66;;;23.80;52.67
69187;BME280;56301;56.864;60.554;2023-08-08T08:13:16;97889.50;;;23.72;52.36
69187;BME280;56301;56.864;60.554;2023-08-08T08:15:39;97893.47;;;23.76;52.70
69187;BME280;56301;56.864;60.554;2023-08-08T08:18:01;97892.50;;;23.91;53.85
69187;BME280;56301;56.864;60.554;2023-08-08T08:20:24;97885.78;;;24.21;54.49
69187;BME280;56301;56.864;60.554;2023-08-08T08:22:46;97886.09;;;24.40;55.56
69187;BME280;56301;56.864;60.554;2023-08-08T08:25:09;97888.81;;;24.46;57.05
69187;BME280;56301;56.864;60.554;2023-08-08T08:27:31;97881.78;;;24.52;57.15
69187;BME280;56301;56.864;60.554;2023-08-08T08:29:54;97881.56;;;24.54;57.55
69187;BME280;56301;56.864;60.554;2023-08-08T08:32:16;97882.00;;;24.57;58.38
69187;BME280;56301;56.864;60.554;2023-08-08T08:34:38;97879.94;;;24.59;58.41
69187;BME280;56301;56.864;60.554;2023-08-08T08:37:01;97876.19;;;24.60;58.75
69187;BME280;56301;56.864;60.554;2023-08-08T08:39:23;97882.00;;;24.64;59.26
69187;BME280;56301;56.864;60.554;2023-08-08T08:41:48;97888.25;;;24.64;59.14
69187;BME280;56301;56.864;60.554;2023-08-08T08:44:11;97889.09;;;24.65;59.58
69187;BME280;56301;56.864;60.554;2023-08-08T08:46:34;97900.13;;;24.63;59.94
69187;BME280;56301;56.864;60.554;2023-08-08T08:48:58;97892.44;;;24.67;59.69
69187;BME280;56301;56.864;60.554;2023-08-08T08:51:20;97899.53;;;24.74;59.65
69187;BME280;56301;56.864;60.554;2023-08-08T08:53:43;97899.31;;;24.83;59.27
69187;BME280;56301;56.864;60.554;2023-08-08T08:56:06;97895.59;;;24.90;58.26
69187;BME280;56301;56.864;60.554;2023-08-08T08:58:28;97899.56;;;25.01;57.12
69187;BME280;56301;56.864;60.554;2023-08-08T09:00:51;97904.16;;;25.07;57.20
69187;BME280;56301;56.864;60.554;2023-08-08T09:03:13;97892.97;;;25.17;56.36
69187;BME280;56301;56.864;60.554;2023-08-08T09:05:36;97891.63;;;24.86;55.63
69187;BME280;56301;56.864;60.554;2023-08-08T09:08:00;97888.22;;;24.44;54.80
69187;BME280;56301;56.864;60.554;2023-08-08T09:10:23;97888.28;;;24.16;53.93
69187;BME280;56301;56.864;60.554;2023-08-08T09:12:46;97881.53;;;23.99;53.68
69187;BME280;56301;56.864;60.554;2023-08-08T09:15:09;97884.19;;;23.86;52.59
69187;BME280;56301;56.864;60.554;2023-08-08T09:17:31;97892.25;;;23.79;53.17
69187;BME280;56301;56.864;60.554;2023-08-08T09:19:54;97884.66;;;24.02;54.39
69187;BME280;56301;56.864;60.554;2023-08-08T09:22:17;97888.66;;;24.13;55.14
69187;BME280;56301;56.864;60.554;2023-08-08T09:24:40;97897.66;;;24.20;55.47
69187;BME280;56301;56.864;60.554;2023-08-08T09:27:02;97893.09;;;24.27;55.39
69187;BME280;56301;56.864;60.554;2023-08-08T09:29:25;97893.75;;;24.30;55.63
69187;BME280;56301;56.864;60.554;2023-08-08T09:31:47;97900.16;;;24.29;55.65
69187;BME280;56301;56.864;60.554;2023-08-08T09:34:10;97903.09;;;24.27;56.15
69187;BME280;56301;56.864;60.554;2023-08-08T09:36:33;97893.09;;;24.27;56.24
69187;BME280;56301;56.864;60.554;2023-08-08T09:38:56;97898.50;;;24.27;56.31
69187;BME280;56301;56.864;60.554;2023-08-08T09:41:19;97896.84;;;24.26;55.75
69187;BME280;56301;56.864;60.554;2023-08-08T09:43:45;97888.91;;;24.25;56.02
69187;BME280;56301;56.864;60.554;2023-08-08T09:46:08;97895.59;;;24.22;56.67
69187;BME280;56301;56.864;60.554;2023-08-08T09:48:30;97904.22;;;24.05;55.84
69187;BME280;56301;56.864;60.554;2023-08-08T09:50:53;97899.34;;;23.87;54.64
69187;BME280;56301;56.864;60.554;2023-08-08T09:53:16;97908.72;;;23.91;55.58
69187;BME280;56301;56.864;60.554;2023-08-08T09:55:39;97914.66;;;24.14;55.28
69187;BME280;56301;56.864;60.554;2023-08-08T09:58:02;97904.56;;;24.30;57.09
69187;BME280;56301;56.864;60.554;2023-08-08T10:00:24;97915.84;;;24.40;57.87
69187;BME280;56301;56.864;60.554;2023-08-08T10:02:47;97906.31;;;24.44;58.11
69187;BME280;56301;56.864;60.554;2023-08-08T10:05:09;97904.03;;;24.47;58.64
69187;BME280;56301;56.864;60.554;2023-08-08T10:07:32;97903.81;;;24.49;58.98
69187;BME280;56301;56.864;60.554;2023-08-08T10:09:55;97905.28;;;24.52;58.95
69187;BME280;56301;56.864;60.554;2023-08-08T10:12:17;97921.09;;;24.55;59.30
69187;BME280;56301;56.864;60.554;2023-08-08T10:14:42;97918.19;;;24.56;59.51
69187;BME280;56301;56.864;60.554;2023-08-08T10:17:05;97915.50;;;24.56;59.90
69187;BME280;56301;56.864;60.554;2023-08-08T10:19:27;97913.63;;;24.57;59.87
69187;BME280;56301;56.864;60.554;2023-08-08T10:21:55;97917.78;;;24.59;59.60
69187;BME280;56301;56.864;60.554;2023-08-08T10:24:19;97912.00;;;24.62;59.58
69187;BME280;56301;56.864;60.554;2023-08-08T10:26:58;97919.06;;;24.63;59.71
69187;BME280;56301;56.864;60.554;2023-08-08T10:29:20;97919.06;;;24.63;59.77
69187;BME280;56301;56.864;60.554;2023-08-08T10:31:50;97918.00;;;24.64;60.34
69187;BME280;56301;56.864;60.554;2023-08-08T10:34:12;97924.06;;;24.66;59.72
69187;BME280;56301;56.864;60.554;2023-08-08T10:39:27;97916.59;;;24.75;58.79
69187;BME280;56301;56.864;60.554;2023-08-08T10:41:49;97916.59;;;24.82;58.45
69187;BME280;56301;56.864;60.554;2023-08-08T10:44:13;97914.75;;;24.89;58.26
69187;BME280;56301;56.864;60.554;2023-08-08T10:46:35;97919.53;;;24.93;58.02
69187;BME280;56301;56.864;60.554;2023-08-08T10:48:59;97912.88;;;24.96;56.96
69187;BME280;56301;56.864;60.554;2023-08-08T10:51:21;97919.56;;;25.00;56.92
69187;BME280;56301;56.864;60.554;2023-08-08T10:53:44;97918.91;;;24.98;57.48
69187;BME280;56301;56.864;60.554;2023-08-08T10:56:11;97919.13;;;24.96;56.94
69187;BME280;56301;56.864;60.554;2023-08-08T10:58:38;97922.47;;;24.98;57.10
69187;BME280;56301;56.864;60.554;2023-08-08T11:01:01;97932.44;;;24.98;56.69
69187;BME280;56301;56.864;60.554;2023-08-08T11:03:23;97940.56;;;24.98;57.25
69187;BME280;56301;56.864;60.554;2023-08-08T11:05:46;97941.41;;;24.98;56.85
69187;BME280;56301;56.864;60.554;2023-08-08T11:08:08;97942.88;;;25.01;56.47
69187;BME280;56301;56.864;60.554;2023-08-08T11:10:38;97943.91;;;25.00;56.64
69187;BME280;56301;56.864;60.554;2023-08-08T11:13:01;97955.38;;;25.02;56.39
69187;BME280;56301;56.864;60.554;2023-08-08T11:15:24;97948.91;;;25.03;56.42
69187;BME280;56301;56.864;60.554;2023-08-08T11:17:46;97948.91;;;25.03;56.22
69187;BME280;56301;56.864;60.554;2023-08-08T11:20:09;97939.97;;;25.03;56.14
69187;BME280;56301;56.864;60.554;2023-08-08T11:22:32;97943.94;;;25.07;56.65
69187;BME280;56301;56.864;60.554;2023-08-08T11:24:54;97937.69;;;25.06;56.05
69187;BME280;56301;56.864;60.554;2023-08-08T11:27:16;97930.59;;;25.05;56.53
69187;BME280;56301;56.864;60.554;2023-08-08T11:29:39;97931.63;;;25.04;56.02
69187;BME280;56301;56.864;60.554;2023-08-08T11:32:01;97942.03;;;25.07;55.93
69187;BME280;56301;56.864;60.554;2023-08-08T11:34:24;97941.22;;;25.07;55.81
69187;BME280;56301;56.864;60.554;2023-08-08T11:36:47;97936.63;;;25.07;56.79
69187;BME280;56301;56.864;60.554;2023-08-08T11:39:09;97949.94;;;25.09;55.72
69187;BME280;56301;56.864;60.554;2023-08-08T11:41:32;97949.78;;;25.10;55.75
69187;BME280;56301;56.864;60.554;2023-08-08T11:43:56;97949.56;;;25.12;55.83
69187;BME280;56301;56.864;60.554;2023-08-08T11:46:22;97953.09;;;25.12;55.65
69187;BME280;56301;56.864;60.554;2023-08-08T11:48:47;97950.41;;;25.12;55.77
69187;BME280;56301;56.864;60.554;2023-08-08T11:51:09;97955.81;;;25.12;55.66
69187;BME280;56301;56.864;60.554;2023-08-08T11:53:32;97961.44;;;25.11;56.33
69187;BME280;56301;56.864;60.554;2023-08-08T11:55:54;97957.50;;;25.13;55.55
69187;BME280;56301;56.864;60.554;2023-08-08T11:58:17;97961.22;;;25.12;55.72
69187;BME280;56301;56.864;60.554;2023-08-08T12:00:42;97963.94;;;25.12;55.26
69187;BME280;56301;56.864;60.554;2023-08-08T12:03:05;97959.38;;;25.13;55.88
69187;BME280;56301;56.864;60.554;2023-08-08T12:05:27;97963.94;;;25.12;55.73
69187;BME280;56301;56.864;60.554;2023-08-08T12:07:51;97962.28;;;25.11;55.91
69187;BME280;56301;56.864;60.554;2023-08-08T12:10:14;97958.75;;;25.11;55.54
69187;BME280;56301;56.864;60.554;2023-08-08T12:12:37;97966.47;;;25.14;55.30
69187;BME280;56301;56.864;60.554;2023-08-08T12:15:05;97967.28;;;25.14;55.47
69187;BME280;56301;56.864;60.554;2023-08-08T12:17:28;97960.22;;;25.13;55.12
69187;BME280;56301;56.864;60.554;2023-08-08T12:19:50;97952.09;;;25.13;55.47
69187;BME280;56301;56.864;60.554;2023-08-08T12:22:13;97960.22;;;25.13;55.41
69187;BME280;56301;56.864;60.554;2023-08-08T12:24:35;97960.00;;;25.15;55.30
69187;BME280;56301;56.864;60.554;2023-08-08T12:26:58;97964.59;;;25.14;55.64
69187;BME280;56301;56.864;60.554;2023-08-08T12:29:20;97970.00;;;25.14;55.02
69187;BME280;56301;56.864;60.554;2023-08-08T12:31:42;97977.06;;;25.15;55.25